Gobernador Costa, Argentina
Current Conditions -  °F | °C
As of 5:00 AM on Thursday 29 Jan 2015 (Local Time) from SCAP Reporting Station
Clear Clear  
Wind Chill: 45°   Ceiling: Unl
Heat Index: 45°   Visibility: NA
Dew Point: 41°   Wind: 1mph
Humidity: 87%   Direction: NA
Pressure: 30.21"   Gusts: NA
Location:  44.07°S, 70.58°W
Report Text: SCAP 290800Z AUTO VRB01KT //// // NSC 07/05 Q1023
Loading
Personal Weather Stations






























Interactive Weather Map New forecast layout! Learn more

10-Day Weather Forecast

Advertisements
Track Severe Weather on mobile